Terminal Aerodrome Forecast
Issued by NWS Sioux Falls, SD

Home | Current Version | Previous Version | Text Only | Print | Product List | Glossary On
Versions: 1 2 3 4 5 6 7 8 9 10
207
FTUS43 KFSD 212320
TAFHON
TAF
KHON 212320Z 2200/2224 07006KT P6SM FEW060 SCT200
     FM220300 VRB03KT P6SM SCT250
     FM221700 21006KT P6SM SKC=

USA.gov is the U.S. government's official web portal to all federal, state and local government web resources and services.